sensor_id;sensor_type;location;lat;lon;timestamp;P1;durP1;ratioP1;P2;durP2;ratioP2
6985;SDS011;3533;51.246;6.850;2022-08-01T00:01:51;1.90;;;1.80;;
6985;SDS011;3533;51.246;6.850;2022-08-01T00:04:18;2.27;;;2.17;;
6985;SDS011;3533;51.246;6.850;2022-08-01T00:06:43;1.80;;;1.70;;
6985;SDS011;3533;51.246;6.850;2022-08-01T00:09:09;2.03;;;1.83;;
6985;SDS011;3533;51.246;6.850;2022-08-01T00:11:34;1.77;;;1.67;;
6985;SDS011;3533;51.246;6.850;2022-08-01T00:14:01;1.97;;;1.87;;
6985;SDS011;3533;51.246;6.850;2022-08-01T00:16:27;2.10;;;2.00;;
6985;SDS011;3533;51.246;6.850;2022-08-01T00:18:52;2.20;;;2.10;;
6985;SDS011;3533;51.246;6.850;2022-08-01T00:21:18;2.20;;;2.10;;
6985;SDS011;3533;51.246;6.850;2022-08-01T00:23:44;2.00;;;1.90;;
6985;SDS011;3533;51.246;6.850;2022-08-01T00:26:10;2.00;;;1.77;;
6985;SDS011;3533;51.246;6.850;2022-08-01T00:28:37;1.73;;;1.63;;
6985;SDS011;3533;51.246;6.850;2022-08-01T00:31:02;1.67;;;1.57;;
6985;SDS011;3533;51.246;6.850;2022-08-01T00:33:28;1.90;;;1.80;;
6985;SDS011;3533;51.246;6.850;2022-08-01T00:35:54;2.00;;;1.90;;
6985;SDS011;3533;51.246;6.850;2022-08-01T00:38:20;1.70;;;1.60;;
6985;SDS011;3533;51.246;6.850;2022-08-01T00:40:45;2.10;;;2.00;;
6985;SDS011;3533;51.246;6.850;2022-08-01T00:43:11;1.70;;;1.60;;
6985;SDS011;3533;51.246;6.850;2022-08-01T00:45:36;1.90;;;1.80;;
6985;SDS011;3533;51.246;6.850;2022-08-01T00:48:02;1.77;;;1.67;;
6985;SDS011;3533;51.246;6.850;2022-08-01T00:50:28;1.90;;;1.80;;
6985;SDS011;3533;51.246;6.850;2022-08-01T00:52:54;1.80;;;1.70;;
6985;SDS011;3533;51.246;6.850;2022-08-01T00:55:21;1.80;;;1.70;;
6985;SDS011;3533;51.246;6.850;2022-08-01T00:57:47;2.00;;;1.90;;
6985;SDS011;3533;51.246;6.850;2022-08-01T01:00:13;1.70;;;1.60;;
6985;SDS011;3533;51.246;6.850;2022-08-01T01:02:39;1.60;;;1.50;;
6985;SDS011;3533;51.246;6.850;2022-08-01T01:05:05;1.70;;;1.60;;
6985;SDS011;3533;51.246;6.850;2022-08-01T01:07:36;2.13;;;2.03;;
6985;SDS011;3533;51.246;6.850;2022-08-01T01:10:16;1.83;;;1.73;;
6985;SDS011;3533;51.246;6.850;2022-08-01T01:12:51;1.70;;;1.60;;
6985;SDS011;3533;51.246;6.850;2022-08-01T01:18:29;1.87;;;1.77;;
6985;SDS011;3533;51.246;6.850;2022-08-01T01:21:01;1.70;;;1.60;;
6985;SDS011;3533;51.246;6.850;2022-08-01T01:26:38;1.77;;;1.67;;
6985;SDS011;3533;51.246;6.850;2022-08-01T01:29:40;1.73;;;1.63;;
6985;SDS011;3533;51.246;6.850;2022-08-01T01:34:58;1.60;;;1.50;;
6985;SDS011;3533;51.246;6.850;2022-08-01T01:37:26;1.67;;;1.57;;
6985;SDS011;3533;51.246;6.850;2022-08-01T01:39:54;1.83;;;1.73;;
6985;SDS011;3533;51.246;6.850;2022-08-01T01:42:20;1.70;;;1.60;;
6985;SDS011;3533;51.246;6.850;2022-08-01T01:44:47;1.67;;;1.57;;
6985;SDS011;3533;51.246;6.850;2022-08-01T01:47:15;2.10;;;2.00;;
6985;SDS011;3533;51.246;6.850;2022-08-01T01:49:43;1.67;;;1.57;;
6985;SDS011;3533;51.246;6.850;2022-08-01T01:52:11;1.90;;;1.80;;
6985;SDS011;3533;51.246;6.850;2022-08-01T01:54:40;2.00;;;1.90;;
6985;SDS011;3533;51.246;6.850;2022-08-01T01:57:16;1.70;;;1.60;;
6985;SDS011;3533;51.246;6.850;2022-08-01T01:59:43;1.60;;;1.50;;
6985;SDS011;3533;51.246;6.850;2022-08-01T02:02:10;1.80;;;1.70;;
6985;SDS011;3533;51.246;6.850;2022-08-01T02:04:38;1.43;;;1.33;;
6985;SDS011;3533;51.246;6.850;2022-08-01T02:07:07;1.70;;;1.60;;
6985;SDS011;3533;51.246;6.850;2022-08-01T02:09:37;1.83;;;1.73;;
6985;SDS011;3533;51.246;6.850;2022-08-01T02:12:07;2.00;;;1.90;;
6985;SDS011;3533;51.246;6.850;2022-08-01T02:14:38;2.00;;;1.90;;
6985;SDS011;3533;51.246;6.850;2022-08-01T02:17:05;1.80;;;1.70;;
6985;SDS011;3533;51.246;6.850;2022-08-01T02:19:34;1.73;;;1.63;;
6985;SDS011;3533;51.246;6.850;2022-08-01T02:22:01;1.70;;;1.60;;
6985;SDS011;3533;51.246;6.850;2022-08-01T02:24:42;1.50;;;1.40;;
6985;SDS011;3533;51.246;6.850;2022-08-01T02:27:24;1.87;;;1.77;;
6985;SDS011;3533;51.246;6.850;2022-08-01T02:29:58;1.70;;;1.60;;
6985;SDS011;3533;51.246;6.850;2022-08-01T02:32:32;2.00;;;1.90;;
6985;SDS011;3533;51.246;6.850;2022-08-01T02:35:03;1.83;;;1.73;;
6985;SDS011;3533;51.246;6.850;2022-08-01T02:37:33;1.50;;;1.40;;
6985;SDS011;3533;51.246;6.850;2022-08-01T02:40:01;1.60;;;1.50;;
6985;SDS011;3533;51.246;6.850;2022-08-01T02:42:27;1.80;;;1.70;;
6985;SDS011;3533;51.246;6.850;2022-08-01T02:44:54;1.80;;;1.70;;
6985;SDS011;3533;51.246;6.850;2022-08-01T02:47:22;1.60;;;1.50;;
6985;SDS011;3533;51.246;6.850;2022-08-01T02:49:50;2.07;;;1.97;;
6985;SDS011;3533;51.246;6.850;2022-08-01T02:52:20;1.70;;;1.60;;
6985;SDS011;3533;51.246;6.850;2022-08-01T02:54:48;1.80;;;1.70;;
6985;SDS011;3533;51.246;6.850;2022-08-01T02:57:18;1.60;;;1.50;;
6985;SDS011;3533;51.246;6.850;2022-08-01T02:59:46;1.60;;;1.50;;
6985;SDS011;3533;51.246;6.850;2022-08-01T03:02:14;1.70;;;1.60;;
6985;SDS011;3533;51.246;6.850;2022-08-01T03:04:41;1.90;;;1.80;;
6985;SDS011;3533;51.246;6.850;2022-08-01T03:07:08;1.83;;;1.70;;
6985;SDS011;3533;51.246;6.850;2022-08-01T03:09:36;1.40;;;1.30;;
6985;SDS011;3533;51.246;6.850;2022-08-01T03:12:06;1.60;;;1.50;;
6985;SDS011;3533;51.246;6.850;2022-08-01T03:14:38;1.50;;;1.40;;
6985;SDS011;3533;51.246;6.850;2022-08-01T03:17:07;1.80;;;1.70;;
6985;SDS011;3533;51.246;6.850;2022-08-01T03:19:34;1.80;;;1.70;;
6985;SDS011;3533;51.246;6.850;2022-08-01T03:22:02;1.57;;;1.47;;
6985;SDS011;3533;51.246;6.850;2022-08-01T03:24:33;1.67;;;1.57;;
6985;SDS011;3533;51.246;6.850;2022-08-01T03:26:59;1.50;;;1.40;;
6985;SDS011;3533;51.246;6.850;2022-08-01T03:29:27;1.67;;;1.57;;
6985;SDS011;3533;51.246;6.850;2022-08-01T03:31:54;1.90;;;1.80;;
6985;SDS011;3533;51.246;6.850;2022-08-01T03:34:22;1.90;;;1.80;;
6985;SDS011;3533;51.246;6.850;2022-08-01T03:36:53;1.57;;;1.47;;
6985;SDS011;3533;51.246;6.850;2022-08-01T03:39:46;1.93;;;1.83;;
6985;SDS011;3533;51.246;6.850;2022-08-01T03:42:15;1.70;;;1.60;;
6985;SDS011;3533;51.246;6.850;2022-08-01T03:44:46;1.80;;;1.70;;
6985;SDS011;3533;51.246;6.850;2022-08-01T03:47:18;1.70;;;1.60;;
6985;SDS011;3533;51.246;6.850;2022-08-01T03:49:47;1.70;;;1.60;;
6985;SDS011;3533;51.246;6.850;2022-08-01T03:52:13;1.90;;;1.80;;
6985;SDS011;3533;51.246;6.850;2022-08-01T03:54:41;1.80;;;1.70;;
6985;SDS011;3533;51.246;6.850;2022-08-01T03:57:10;1.70;;;1.60;;
6985;SDS011;3533;51.246;6.850;2022-08-01T03:59:36;1.70;;;1.60;;
6985;SDS011;3533;51.246;6.850;2022-08-01T04:02:03;2.00;;;1.90;;
6985;SDS011;3533;51.246;6.850;2022-08-01T04:04:30;1.90;;;1.80;;
6985;SDS011;3533;51.246;6.850;2022-08-01T04:06:56;1.60;;;1.50;;
6985;SDS011;3533;51.246;6.850;2022-08-01T04:09:22;1.90;;;1.80;;
6985;SDS011;3533;51.246;6.850;2022-08-01T04:11:49;1.67;;;1.57;;
6985;SDS011;3533;51.246;6.850;2022-08-01T04:14:15;1.60;;;1.50;;
6985;SDS011;3533;51.246;6.850;2022-08-01T04:16:42;1.83;;;1.73;;
6985;SDS011;3533;51.246;6.850;2022-08-01T04:19:08;1.57;;;1.47;;
6985;SDS011;3533;51.246;6.850;2022-08-01T04:21:34;1.70;;;1.60;;
6985;SDS011;3533;51.246;6.850;2022-08-01T04:24:05;1.87;;;1.77;;
6985;SDS011;3533;51.246;6.850;2022-08-01T04:26:36;1.83;;;1.73;;
6985;SDS011;3533;51.246;6.850;2022-08-01T04:29:04;1.80;;;1.70;;
6985;SDS011;3533;51.246;6.850;2022-08-01T04:31:31;2.00;;;1.90;;
6985;SDS011;3533;51.246;6.850;2022-08-01T04:33:59;2.20;;;2.10;;
6985;SDS011;3533;51.246;6.850;2022-08-01T04:36:27;1.90;;;1.80;;
6985;SDS011;3533;51.246;6.850;2022-08-01T04:38:55;1.77;;;1.67;;
6985;SDS011;3533;51.246;6.850;2022-08-01T04:41:24;2.20;;;1.83;;
6985;SDS011;3533;51.246;6.850;2022-08-01T04:43:51;2.03;;;1.93;;
6985;SDS011;3533;51.246;6.850;2022-08-01T04:46:17;1.70;;;1.60;;
6985;SDS011;3533;51.246;6.850;2022-08-01T04:48:44;1.87;;;1.77;;
6985;SDS011;3533;51.246;6.850;2022-08-01T04:51:11;1.87;;;1.77;;
6985;SDS011;3533;51.246;6.850;2022-08-01T04:53:40;1.80;;;1.70;;
6985;SDS011;3533;51.246;6.850;2022-08-01T04:56:06;2.30;;;2.10;;
6985;SDS011;3533;51.246;6.850;2022-08-01T04:58:32;1.80;;;1.70;;
6985;SDS011;3533;51.246;6.850;2022-08-01T05:00:57;1.63;;;1.53;;
6985;SDS011;3533;51.246;6.850;2022-08-01T05:03:23;2.00;;;1.90;;
6985;SDS011;3533;51.246;6.850;2022-08-01T05:05:48;2.20;;;2.10;;
6985;SDS011;3533;51.246;6.850;2022-08-01T05:08:14;2.07;;;1.97;;
6985;SDS011;3533;51.246;6.850;2022-08-01T05:10:41;2.00;;;1.90;;
6985;SDS011;3533;51.246;6.850;2022-08-01T05:13:06;2.00;;;1.90;;
6985;SDS011;3533;51.246;6.850;2022-08-01T05:15:36;2.10;;;2.00;;
6985;SDS011;3533;51.246;6.850;2022-08-01T05:18:02;2.20;;;2.10;;
6985;SDS011;3533;51.246;6.850;2022-08-01T05:20:28;2.17;;;2.07;;
6985;SDS011;3533;51.246;6.850;2022-08-01T05:22:53;1.97;;;1.87;;
6985;SDS011;3533;51.246;6.850;2022-08-01T05:25:20;2.27;;;2.17;;
6985;SDS011;3533;51.246;6.850;2022-08-01T05:27:46;2.40;;;2.30;;
6985;SDS011;3533;51.246;6.850;2022-08-01T05:30:12;2.20;;;2.10;;
6985;SDS011;3533;51.246;6.850;2022-08-01T05:32:37;1.83;;;1.73;;
6985;SDS011;3533;51.246;6.850;2022-08-01T05:35:04;2.13;;;2.03;;
6985;SDS011;3533;51.246;6.850;2022-08-01T05:37:30;2.13;;;2.03;;
6985;SDS011;3533;51.246;6.850;2022-08-01T05:39:56;1.97;;;1.87;;
6985;SDS011;3533;51.246;6.850;2022-08-01T05:42:21;2.10;;;2.00;;
6985;SDS011;3533;51.246;6.850;2022-08-01T05:44:47;1.90;;;1.80;;
6985;SDS011;3533;51.246;6.850;2022-08-01T05:47:13;2.37;;;2.27;;
6985;SDS011;3533;51.246;6.850;2022-08-01T05:49:39;2.27;;;2.17;;
6985;SDS011;3533;51.246;6.850;2022-08-01T05:52:04;2.33;;;2.23;;
6985;SDS011;3533;51.246;6.850;2022-08-01T05:54:30;2.43;;;2.33;;
6985;SDS011;3533;51.246;6.850;2022-08-01T05:56:56;2.13;;;2.03;;
6985;SDS011;3533;51.246;6.850;2022-08-01T05:59:25;2.33;;;2.23;;
6985;SDS011;3533;51.246;6.850;2022-08-01T06:01:51;2.60;;;2.50;;
6985;SDS011;3533;51.246;6.850;2022-08-01T06:04:18;2.53;;;2.43;;
6985;SDS011;3533;51.246;6.850;2022-08-01T06:06:44;2.57;;;2.47;;
6985;SDS011;3533;51.246;6.850;2022-08-01T06:09:10;2.50;;;2.40;;
6985;SDS011;3533;51.246;6.850;2022-08-01T06:11:36;2.20;;;2.10;;
6985;SDS011;3533;51.246;6.850;2022-08-01T06:14:01;2.20;;;2.10;;
6985;SDS011;3533;51.246;6.850;2022-08-01T06:16:27;2.50;;;2.40;;
6985;SDS011;3533;51.246;6.850;2022-08-01T06:18:52;2.10;;;2.00;;
6985;SDS011;3533;51.246;6.850;2022-08-01T06:21:18;2.30;;;2.20;;
6985;SDS011;3533;51.246;6.850;2022-08-01T06:23:44;2.40;;;2.30;;
6985;SDS011;3533;51.246;6.850;2022-08-01T06:26:10;2.70;;;2.60;;
6985;SDS011;3533;51.246;6.850;2022-08-01T06:28:36;2.20;;;2.10;;
6985;SDS011;3533;51.246;6.850;2022-08-01T06:31:02;2.37;;;2.27;;
6985;SDS011;3533;51.246;6.850;2022-08-01T06:33:27;2.57;;;2.47;;
6985;SDS011;3533;51.246;6.850;2022-08-01T06:35:53;2.20;;;2.10;;
6985;SDS011;3533;51.246;6.850;2022-08-01T06:38:19;2.30;;;2.20;;
6985;SDS011;3533;51.246;6.850;2022-08-01T06:40:44;2.30;;;2.20;;
6985;SDS011;3533;51.246;6.850;2022-08-01T06:43:10;2.40;;;2.30;;
6985;SDS011;3533;51.246;6.850;2022-08-01T06:45:39;2.30;;;2.20;;
6985;SDS011;3533;51.246;6.850;2022-08-01T06:48:05;2.43;;;2.33;;
6985;SDS011;3533;51.246;6.850;2022-08-01T06:50:33;2.43;;;2.27;;
6985;SDS011;3533;51.246;6.850;2022-08-01T06:53:00;2.50;;;2.40;;
6985;SDS011;3533;51.246;6.850;2022-08-01T06:55:26;2.33;;;2.13;;
6985;SDS011;3533;51.246;6.850;2022-08-01T06:57:52;3.00;;;2.80;;
6985;SDS011;3533;51.246;6.850;2022-08-01T07:00:19;2.20;;;2.10;;
6985;SDS011;3533;51.246;6.850;2022-08-01T07:02:47;2.20;;;2.10;;
6985;SDS011;3533;51.246;6.850;2022-08-01T07:05:17;2.20;;;2.10;;
6985;SDS011;3533;51.246;6.850;2022-08-01T07:07:43;2.47;;;2.37;;
6985;SDS011;3533;51.246;6.850;2022-08-01T07:10:09;2.30;;;2.20;;
6985;SDS011;3533;51.246;6.850;2022-08-01T07:12:35;3.17;;;2.97;;
6985;SDS011;3533;51.246;6.850;2022-08-01T07:15:06;2.73;;;2.53;;
6985;SDS011;3533;51.246;6.850;2022-08-01T07:17:36;2.80;;;2.70;;
6985;SDS011;3533;51.246;6.850;2022-08-01T07:20:06;2.90;;;2.80;;
6985;SDS011;3533;51.246;6.850;2022-08-01T07:22:36;2.23;;;2.13;;
6985;SDS011;3533;51.246;6.850;2022-08-01T07:25:03;2.80;;;2.60;;
6985;SDS011;3533;51.246;6.850;2022-08-01T07:27:29;2.90;;;2.70;;
6985;SDS011;3533;51.246;6.850;2022-08-01T07:29:55;2.60;;;2.47;;
6985;SDS011;3533;51.246;6.850;2022-08-01T07:32:20;2.77;;;2.67;;
6985;SDS011;3533;51.246;6.850;2022-08-01T07:34:46;2.63;;;2.53;;
6985;SDS011;3533;51.246;6.850;2022-08-01T07:37:11;2.53;;;2.43;;
6985;SDS011;3533;51.246;6.850;2022-08-01T07:39:37;2.53;;;2.43;;
6985;SDS011;3533;51.246;6.850;2022-08-01T07:42:03;2.57;;;2.47;;
6985;SDS011;3533;51.246;6.850;2022-08-01T07:44:29;2.70;;;2.50;;
6985;SDS011;3533;51.246;6.850;2022-08-01T07:46:55;2.53;;;2.43;;
6985;SDS011;3533;51.246;6.850;2022-08-01T07:49:20;2.50;;;2.40;;
6985;SDS011;3533;51.246;6.850;2022-08-01T07:51:47;2.40;;;2.30;;
6985;SDS011;3533;51.246;6.850;2022-08-01T07:54:12;2.57;;;2.33;;
6985;SDS011;3533;51.246;6.850;2022-08-01T07:56:38;3.00;;;2.80;;
6985;SDS011;3533;51.246;6.850;2022-08-01T07:59:03;2.57;;;2.47;;
6985;SDS011;3533;51.246;6.850;2022-08-01T08:01:29;3.00;;;2.90;;
6985;SDS011;3533;51.246;6.850;2022-08-01T08:03:57;2.33;;;2.23;;
6985;SDS011;3533;51.246;6.850;2022-08-01T08:06:23;2.53;;;2.43;;
6985;SDS011;3533;51.246;6.850;2022-08-01T08:08:49;2.80;;;2.70;;
6985;SDS011;3533;51.246;6.850;2022-08-01T08:11:14;2.63;;;2.53;;
6985;SDS011;3533;51.246;6.850;2022-08-01T08:13:40;2.73;;;2.63;;
6985;SDS011;3533;51.246;6.850;2022-08-01T08:16:07;2.40;;;2.30;;
6985;SDS011;3533;51.246;6.850;2022-08-01T08:18:33;2.93;;;2.73;;
6985;SDS011;3533;51.246;6.850;2022-08-01T08:21:00;2.73;;;2.63;;
6985;SDS011;3533;51.246;6.850;2022-08-01T08:23:26;2.40;;;2.30;;
6985;SDS011;3533;51.246;6.850;2022-08-01T08:26:10;2.57;;;2.47;;
6985;SDS011;3533;51.246;6.850;2022-08-01T08:28:37;2.70;;;2.60;;
6985;SDS011;3533;51.246;6.850;2022-08-01T08:31:06;2.73;;;2.63;;
6985;SDS011;3533;51.246;6.850;2022-08-01T08:33:33;3.10;;;3.00;;
6985;SDS011;3533;51.246;6.850;2022-08-01T08:35:58;2.50;;;2.40;;
6985;SDS011;3533;51.246;6.850;2022-08-01T08:38:24;2.80;;;2.70;;
6985;SDS011;3533;51.246;6.850;2022-08-01T08:40:52;3.23;;;3.10;;
6985;SDS011;3533;51.246;6.850;2022-08-01T08:43:18;2.63;;;2.53;;
6985;SDS011;3533;51.246;6.850;2022-08-01T08:45:45;2.90;;;2.80;;
6985;SDS011;3533;51.246;6.850;2022-08-01T08:48:12;2.33;;;2.23;;
6985;SDS011;3533;51.246;6.850;2022-08-01T08:50:40;2.70;;;2.60;;
6985;SDS011;3533;51.246;6.850;2022-08-01T08:53:09;2.90;;;2.70;;
6985;SDS011;3533;51.246;6.850;2022-08-01T08:55:35;2.50;;;2.30;;
6985;SDS011;3533;51.246;6.850;2022-08-01T08:58:02;2.67;;;2.57;;
6985;SDS011;3533;51.246;6.850;2022-08-01T09:00:31;3.20;;;3.00;;
6985;SDS011;3533;51.246;6.850;2022-08-01T09:02:59;2.73;;;2.53;;
6985;SDS011;3533;51.246;6.850;2022-08-01T09:05:25;2.67;;;2.57;;
6985;SDS011;3533;51.246;6.850;2022-08-01T09:07:51;3.27;;;3.07;;
6985;SDS011;3533;51.246;6.850;2022-08-01T09:10:18;2.57;;;2.37;;
6985;SDS011;3533;51.246;6.850;2022-08-01T09:13:03;2.60;;;2.50;;
6985;SDS011;3533;51.246;6.850;2022-08-01T09:15:39;3.07;;;2.90;;
6985;SDS011;3533;51.246;6.850;2022-08-01T09:23:31;2.97;;;2.67;;
6985;SDS011;3533;51.246;6.850;2022-08-01T09:26:10;2.77;;;2.57;;
6985;SDS011;3533;51.246;6.850;2022-08-01T09:28:37;2.77;;;2.67;;
6985;SDS011;3533;51.246;6.850;2022-08-01T09:31:11;2.23;;;2.13;;
6985;SDS011;3533;51.246;6.850;2022-08-01T09:36:16;2.70;;;2.60;;
6985;SDS011;3533;51.246;6.850;2022-08-01T09:38:42;2.30;;;2.20;;
6985;SDS011;3533;51.246;6.850;2022-08-01T09:41:08;2.70;;;2.60;;
6985;SDS011;3533;51.246;6.850;2022-08-01T09:43:33;2.87;;;2.57;;
6985;SDS011;3533;51.246;6.850;2022-08-01T09:46:00;2.80;;;2.60;;
6985;SDS011;3533;51.246;6.850;2022-08-01T09:48:33;3.07;;;2.90;;
6985;SDS011;3533;51.246;6.850;2022-08-01T09:50:59;2.43;;;2.33;;
6985;SDS011;3533;51.246;6.850;2022-08-01T09:53:25;2.53;;;2.43;;
6985;SDS011;3533;51.246;6.850;2022-08-01T09:55:51;3.00;;;2.80;;
6985;SDS011;3533;51.246;6.850;2022-08-01T09:58:19;2.53;;;2.43;;
6985;SDS011;3533;51.246;6.850;2022-08-01T10:00:46;3.00;;;2.80;;
6985;SDS011;3533;51.246;6.850;2022-08-01T10:03:25;2.60;;;2.50;;
6985;SDS011;3533;51.246;6.850;2022-08-01T10:05:52;2.70;;;2.60;;
6985;SDS011;3533;51.246;6.850;2022-08-01T10:08:21;2.73;;;2.63;;
6985;SDS011;3533;51.246;6.850;2022-08-01T10:11:08;2.90;;;2.80;;
6985;SDS011;3533;51.246;6.850;2022-08-01T10:13:35;3.00;;;2.80;;
6985;SDS011;3533;51.246;6.850;2022-08-01T10:16:02;2.80;;;2.70;;
6985;SDS011;3533;51.246;6.850;2022-08-01T10:18:29;2.90;;;2.80;;
6985;SDS011;3533;51.246;6.850;2022-08-01T10:20:57;2.50;;;2.40;;
6985;SDS011;3533;51.246;6.850;2022-08-01T10:23:24;2.67;;;2.57;;
6985;SDS011;3533;51.246;6.850;2022-08-01T10:25:52;2.53;;;2.43;;
6985;SDS011;3533;51.246;6.850;2022-08-01T10:28:20;2.60;;;2.50;;
6985;SDS011;3533;51.246;6.850;2022-08-01T10:30:47;2.93;;;2.63;;
6985;SDS011;3533;51.246;6.850;2022-08-01T10:33:13;2.50;;;2.40;;
6985;SDS011;3533;51.246;6.850;2022-08-01T10:35:40;2.53;;;2.40;;
6985;SDS011;3533;51.246;6.850;2022-08-01T10:38:06;2.90;;;2.80;;
6985;SDS011;3533;51.246;6.850;2022-08-01T10:40:32;2.40;;;2.30;;
6985;SDS011;3533;51.246;6.850;2022-08-01T10:42:58;3.40;;;3.23;;
6985;SDS011;3533;51.246;6.850;2022-08-01T10:45:24;2.43;;;2.33;;
6985;SDS011;3533;51.246;6.850;2022-08-01T10:50:38;2.47;;;2.37;;
6985;SDS011;3533;51.246;6.850;2022-08-01T10:53:21;2.77;;;2.67;;
6985;SDS011;3533;51.246;6.850;2022-08-01T10:58:26;2.40;;;2.30;;
6985;SDS011;3533;51.246;6.850;2022-08-01T11:06:28;2.50;;;2.40;;
6985;SDS011;3533;51.246;6.850;2022-08-01T11:09:00;2.30;;;2.20;;
6985;SDS011;3533;51.246;6.850;2022-08-01T11:11:29;2.47;;;2.37;;
6985;SDS011;3533;51.246;6.850;2022-08-01T11:16:36;2.40;;;2.30;;
6985;SDS011;3533;51.246;6.850;2022-08-01T11:19:03;2.73;;;2.63;;
6985;SDS011;3533;51.246;6.850;2022-08-01T11:27:21;2.10;;;1.90;;
6985;SDS011;3533;51.246;6.850;2022-08-01T11:35:23;2.63;;;2.50;;
6985;SDS011;3533;51.246;6.850;2022-08-01T11:37:51;2.20;;;2.10;;
6985;SDS011;3533;51.246;6.850;2022-08-01T11:40:21;2.33;;;2.23;;
6985;SDS011;3533;51.246;6.850;2022-08-01T11:42:49;2.23;;;2.13;;
6985;SDS011;3533;51.246;6.850;2022-08-01T11:48:19;2.33;;;2.23;;
6985;SDS011;3533;51.246;6.850;2022-08-01T11:50:46;2.63;;;2.53;;
6985;SDS011;3533;51.246;6.850;2022-08-01T11:53:12;2.40;;;2.30;;
6985;SDS011;3533;51.246;6.850;2022-08-01T11:55:45;2.33;;;2.23;;
6985;SDS011;3533;51.246;6.850;2022-08-01T11:58:12;2.37;;;2.27;;
6985;SDS011;3533;51.246;6.850;2022-08-01T12:00:37;2.37;;;2.27;;
6985;SDS011;3533;51.246;6.850;2022-08-01T12:03:05;2.23;;;2.13;;
6985;SDS011;3533;51.246;6.850;2022-08-01T12:05:32;2.27;;;2.17;;
6985;SDS011;3533;51.246;6.850;2022-08-01T12:08:00;2.23;;;2.13;;
6985;SDS011;3533;51.246;6.850;2022-08-01T12:10:27;2.30;;;2.20;;
6985;SDS011;3533;51.246;6.850;2022-08-01T12:13:01;2.50;;;2.40;;
6985;SDS011;3533;51.246;6.850;2022-08-01T12:15:30;2.17;;;2.03;;
6985;SDS011;3533;51.246;6.850;2022-08-01T12:17:59;2.20;;;2.10;;
6985;SDS011;3533;51.246;6.850;2022-08-01T12:20:28;1.93;;;1.83;;
6985;SDS011;3533;51.246;6.850;2022-08-01T12:22:56;2.00;;;1.90;;
6985;SDS011;3533;51.246;6.850;2022-08-01T12:25:22;1.90;;;1.80;;
6985;SDS011;3533;51.246;6.850;2022-08-01T12:27:49;2.20;;;2.10;;
6985;SDS011;3533;51.246;6.850;2022-08-01T12:30:18;2.40;;;2.30;;
6985;SDS011;3533;51.246;6.850;2022-08-01T12:32:49;2.00;;;1.90;;
6985;SDS011;3533;51.246;6.850;2022-08-01T12:35:17;2.07;;;1.97;;
6985;SDS011;3533;51.246;6.850;2022-08-01T12:37:46;1.93;;;1.83;;
6985;SDS011;3533;51.246;6.850;2022-08-01T12:40:14;2.17;;;2.07;;
6985;SDS011;3533;51.246;6.850;2022-08-01T12:42:41;2.23;;;2.10;;
6985;SDS011;3533;51.246;6.850;2022-08-01T12:45:09;2.50;;;2.40;;
6985;SDS011;3533;51.246;6.850;2022-08-01T12:47:37;2.20;;;2.10;;
6985;SDS011;3533;51.246;6.850;2022-08-01T12:50:06;2.07;;;1.97;;
6985;SDS011;3533;51.246;6.850;2022-08-01T12:52:36;2.10;;;2.00;;
6985;SDS011;3533;51.246;6.850;2022-08-01T12:55:07;2.07;;;1.97;;
6985;SDS011;3533;51.246;6.850;2022-08-01T12:57:43;2.00;;;1.90;;
6985;SDS011;3533;51.246;6.850;2022-08-01T13:00:22;2.00;;;1.90;;
6985;SDS011;3533;51.246;6.850;2022-08-01T13:02:49;1.80;;;1.70;;
6985;SDS011;3533;51.246;6.850;2022-08-01T13:05:27;2.00;;;1.90;;
6985;SDS011;3533;51.246;6.850;2022-08-01T13:08:15;2.00;;;1.90;;
6985;SDS011;3533;51.246;6.850;2022-08-01T13:10:44;1.63;;;1.53;;
6985;SDS011;3533;51.246;6.850;2022-08-01T13:13:13;2.00;;;1.90;;
6985;SDS011;3533;51.246;6.850;2022-08-01T13:15:40;1.90;;;1.80;;
6985;SDS011;3533;51.246;6.850;2022-08-01T13:21:09;1.80;;;1.70;;
6985;SDS011;3533;51.246;6.850;2022-08-01T13:23:38;1.93;;;1.83;;
6985;SDS011;3533;51.246;6.850;2022-08-01T13:26:05;1.93;;;1.83;;
6985;SDS011;3533;51.246;6.850;2022-08-01T13:28:31;1.80;;;1.70;;
6985;SDS011;3533;51.246;6.850;2022-08-01T13:33:26;2.20;;;2.10;;
6985;SDS011;3533;51.246;6.850;2022-08-01T13:35:54;1.90;;;1.80;;
6985;SDS011;3533;51.246;6.850;2022-08-01T13:38:21;1.70;;;1.60;;
6985;SDS011;3533;51.246;6.850;2022-08-01T13:41:26;1.90;;;1.80;;
6985;SDS011;3533;51.246;6.850;2022-08-01T13:43:52;1.60;;;1.50;;
6985;SDS011;3533;51.246;6.850;2022-08-01T13:46:17;1.80;;;1.70;;
6985;SDS011;3533;51.246;6.850;2022-08-01T13:48:43;2.00;;;1.90;;
6985;SDS011;3533;51.246;6.850;2022-08-01T13:51:09;1.90;;;1.80;;
6985;SDS011;3533;51.246;6.850;2022-08-01T13:53:35;1.80;;;1.70;;
6985;SDS011;3533;51.246;6.850;2022-08-01T13:56:00;1.70;;;1.60;;
6985;SDS011;3533;51.246;6.850;2022-08-01T13:58:27;1.80;;;1.70;;
6985;SDS011;3533;51.246;6.850;2022-08-01T14:00:53;1.60;;;1.50;;
6985;SDS011;3533;51.246;6.850;2022-08-01T14:03:20;1.73;;;1.63;;
6985;SDS011;3533;51.246;6.850;2022-08-01T14:05:46;1.70;;;1.60;;
6985;SDS011;3533;51.246;6.850;2022-08-01T14:08:11;1.50;;;1.40;;
6985;SDS011;3533;51.246;6.850;2022-08-01T14:10:37;1.87;;;1.77;;
6985;SDS011;3533;51.246;6.850;2022-08-01T14:13:04;1.77;;;1.67;;
6985;SDS011;3533;51.246;6.850;2022-08-01T14:15:30;1.60;;;1.50;;
6985;SDS011;3533;51.246;6.850;2022-08-01T14:17:56;1.63;;;1.53;;
6985;SDS011;3533;51.246;6.850;2022-08-01T14:20:22;1.77;;;1.67;;
6985;SDS011;3533;51.246;6.850;2022-08-01T14:22:48;1.70;;;1.60;;
6985;SDS011;3533;51.246;6.850;2022-08-01T14:25:14;1.90;;;1.80;;
6985;SDS011;3533;51.246;6.850;2022-08-01T14:27:41;1.90;;;1.80;;
6985;SDS011;3533;51.246;6.850;2022-08-01T14:30:07;1.80;;;1.70;;
6985;SDS011;3533;51.246;6.850;2022-08-01T14:32:33;1.90;;;1.80;;
6985;SDS011;3533;51.246;6.850;2022-08-01T14:35:00;1.67;;;1.57;;
6985;SDS011;3533;51.246;6.850;2022-08-01T14:37:27;2.03;;;1.93;;
6985;SDS011;3533;51.246;6.850;2022-08-01T14:39:54;1.60;;;1.50;;
6985;SDS011;3533;51.246;6.850;2022-08-01T14:42:20;1.70;;;1.60;;
6985;SDS011;3533;51.246;6.850;2022-08-01T14:44:45;1.87;;;1.77;;
6985;SDS011;3533;51.246;6.850;2022-08-01T14:47:11;1.47;;;1.37;;
6985;SDS011;3533;51.246;6.850;2022-08-01T14:49:36;1.80;;;1.70;;
6985;SDS011;3533;51.246;6.850;2022-08-01T14:52:02;1.90;;;1.80;;
6985;SDS011;3533;51.246;6.850;2022-08-01T14:54:28;1.50;;;1.40;;
6985;SDS011;3533;51.246;6.850;2022-08-01T14:56:53;2.03;;;1.93;;
6985;SDS011;3533;51.246;6.850;2022-08-01T14:59:19;1.87;;;1.77;;
6985;SDS011;3533;51.246;6.850;2022-08-01T15:01:44;1.60;;;1.50;;
6985;SDS011;3533;51.246;6.850;2022-08-01T15:04:10;1.67;;;1.57;;
6985;SDS011;3533;51.246;6.850;2022-08-01T15:06:36;1.70;;;1.60;;
6985;SDS011;3533;51.246;6.850;2022-08-01T15:09:02;1.80;;;1.70;;
6985;SDS011;3533;51.246;6.850;2022-08-01T15:11:28;1.60;;;1.50;;
6985;SDS011;3533;51.246;6.850;2022-08-01T15:13:54;1.60;;;1.50;;
6985;SDS011;3533;51.246;6.850;2022-08-01T15:16:38;1.60;;;1.50;;
6985;SDS011;3533;51.246;6.850;2022-08-01T15:19:04;1.73;;;1.63;;
6985;SDS011;3533;51.246;6.850;2022-08-01T15:21:30;1.43;;;1.33;;
6985;SDS011;3533;51.246;6.850;2022-08-01T15:23:55;1.87;;;1.77;;
6985;SDS011;3533;51.246;6.850;2022-08-01T15:26:22;1.70;;;1.60;;
6985;SDS011;3533;51.246;6.850;2022-08-01T15:28:47;1.70;;;1.60;;
6985;SDS011;3533;51.246;6.850;2022-08-01T15:31:13;1.50;;;1.40;;
6985;SDS011;3533;51.246;6.850;2022-08-01T15:33:38;1.57;;;1.47;;
6985;SDS011;3533;51.246;6.850;2022-08-01T15:36:04;1.47;;;1.37;;
6985;SDS011;3533;51.246;6.850;2022-08-01T15:38:30;1.60;;;1.50;;
6985;SDS011;3533;51.246;6.850;2022-08-01T15:40:55;1.63;;;1.53;;
6985;SDS011;3533;51.246;6.850;2022-08-01T15:43:21;1.50;;;1.40;;
6985;SDS011;3533;51.246;6.850;2022-08-01T15:45:47;1.83;;;1.73;;
6985;SDS011;3533;51.246;6.850;2022-08-01T15:48:13;1.60;;;1.50;;
6985;SDS011;3533;51.246;6.850;2022-08-01T15:50:39;1.70;;;1.60;;
6985;SDS011;3533;51.246;6.850;2022-08-01T15:53:05;1.50;;;1.40;;
6985;SDS011;3533;51.246;6.850;2022-08-01T15:55:31;1.63;;;1.53;;
6985;SDS011;3533;51.246;6.850;2022-08-01T15:57:59;1.60;;;1.50;;
6985;SDS011;3533;51.246;6.850;2022-08-01T16:00:27;1.77;;;1.67;;
6985;SDS011;3533;51.246;6.850;2022-08-01T16:02:53;1.50;;;1.40;;
6985;SDS011;3533;51.246;6.850;2022-08-01T16:05:20;1.50;;;1.40;;
6985;SDS011;3533;51.246;6.850;2022-08-01T16:07:45;1.63;;;1.53;;
6985;SDS011;3533;51.246;6.850;2022-08-01T16:10:12;1.47;;;1.37;;